Time;durP1;ratioP1;P1;durP2;ratioP2;P2;SDS_P1;SDS_P2;PMS_P1;PMS_P2;Temp;Humidity;BMP_temperature;BMP_pressure;BME280_temperature;BME280_humidity;BME280_pressure;Samples;Min_cycle;Max_cycle;Signal;HPM_P1;HPM_P2
2023/10/30 00:00:12;;;;;;;;;;;;;;;10.16;100.00;99765.34;5094824;28;19920;-91
2023/10/30 00:02:39;;;;;;;;;;;;;;;10.15;100.00;99769.72;5114321;28;19911;-91
2023/10/30 00:05:06;;;;;;;;;;;;;;;10.21;100.00;99768.69;5112417;28;19916;-91
2023/10/30 00:07:31;;;;;;;;;;;;;;;10.15;100.00;99771.47;5112388;28;20398;-91
2023/10/30 00:09:57;;;;;;;;;;;;;;;10.17;100.00;99783.63;5078085;28;19920;-91
2023/10/30 00:12:22;;;;;;;;;;;;;;;10.16;100.00;99786.28;5095665;28;20389;-91
2023/10/30 00:14:47;;;;;;;;;;;;;;;10.14;100.00;99780.22;5095560;28;19922;-91
2023/10/30 00:17:13;;;;;;;;;;;;;;;10.14;100.00;99782.84;5095256;28;19912;-92
2023/10/30 00:19:38;;;;;;;;;;;;;;;10.13;100.00;99794.19;5095655;28;19962;-92
2023/10/30 00:22:03;;;;;;;;;;;;;;;10.23;100.00;99803.56;5112561;28;19911;-91
2023/10/30 00:24:47;;;;;;;;;;;;;;;10.27;100.00;99805.19;5095346;28;19915;-92
2023/10/30 00:27:16;;;;;;;;;;;;;;;10.25;100.00;99808.75;5095055;28;19923;-91
2023/10/30 00:29:41;;;;;;;;;;;;;;;10.21;100.00;99815.81;5078532;28;19931;-91
2023/10/30 00:32:07;;;;;;;;;;;;;;;10.31;100.00;99824.28;5112333;28;19919;-91
2023/10/30 00:37:35;;;;;;;;;;;;;;;10.25;100.00;99827.94;5113165;28;20839;-91
2023/10/30 00:43:04;;;;;;;;;;;;;;;10.08;100.00;99843.22;5113568;28;19919;-91
2023/10/30 00:45:49;;;;;;;;;;;;;;;10.04;100.00;99851.16;5095016;28;20283;-92
2023/10/30 00:48:15;;;;;;;;;;;;;;;10.20;100.00;99845.50;5095499;28;19918;-92
2023/10/30 00:50:40;;;;;;;;;;;;;;;10.19;100.00;99849.03;5113418;28;20142;-92
2023/10/30 00:53:06;;;;;;;;;;;;;;;10.20;100.00;99856.84;5094565;28;19916;-91
2023/10/30 00:55:35;;;;;;;;;;;;;;;10.29;100.00;99854.91;5112023;28;19916;-91
2023/10/30 00:58:00;;;;;;;;;;;;;;;10.33;100.00;99859.13;5095304;28;19971;-91
2023/10/30 01:00:26;;;;;;;;;;;;;;;10.39;100.00;99864.25;5112290;28;20012;-91
2023/10/30 01:02:51;;;;;;;;;;;;;;;10.29;100.00;99861.00;5108780;28;19959;-91
2023/10/30 01:05:16;;;;;;;;;;;;;;;10.43;100.00;99870.25;5079435;28;19912;-92
2023/10/30 01:07:42;;;;;;;;;;;;;;;10.51;100.00;99870.91;5116011;28;19919;-92
2023/10/30 01:10:07;;;;;;;;;;;;;;;10.58;100.00;99868.09;5099214;28;19959;-91
2023/10/30 01:12:32;;;;;;;;;;;;;;;10.47;100.00;99877.13;5098478;28;20002;-91
2023/10/30 01:14:58;;;;;;;;;;;;;;;10.47;100.00;99875.38;5082227;28;19916;-91
2023/10/30 01:17:23;;;;;;;;;;;;;;;10.44;100.00;99877.22;5116076;28;19912;-92
2023/10/30 01:19:48;;;;;;;;;;;;;;;10.31;100.00;99882.75;5103410;28;20057;-91
2023/10/30 01:22:14;;;;;;;;;;;;;;;10.25;100.00;99890.75;5114051;28;19915;-91
2023/10/30 01:24:39;;;;;;;;;;;;;;;10.51;100.00;99891.88;5098630;28;19911;-91
2023/10/30 01:27:04;;;;;;;;;;;;;;;10.31;100.00;99877.50;5115651;28;19918;-91
2023/10/30 01:29:29;;;;;;;;;;;;;;;10.44;100.00;99885.09;5102509;28;20014;-91
2023/10/30 01:31:55;;;;;;;;;;;;;;;10.49;100.00;99883.22;5115455;28;19995;-92
2023/10/30 01:34:20;;;;;;;;;;;;;;;10.42;100.00;99872.03;5115563;28;19916;-91
2023/10/30 01:36:45;;;;;;;;;;;;;;;10.36;100.00;99877.44;5095021;28;19920;-91
2023/10/30 01:39:11;;;;;;;;;;;;;;;10.34;100.00;99877.47;5089134;28;19984;-91
2023/10/30 01:41:36;;;;;;;;;;;;;;;10.33;100.00;99872.22;5115440;28;19965;-91
2023/10/30 01:50:09;;;;;;;;;;;;;;;10.36;100.00;99866.97;5115193;28;20382;-91
2023/10/30 01:52:35;;;;;;;;;;;;;;;10.47;100.00;99875.38;5098082;28;19947;-91
2023/10/30 01:55:01;;;;;;;;;;;;;;;10.39;100.00;99872.13;5081430;28;20033;-92
2023/10/30 01:57:27;;;;;;;;;;;;;;;10.45;100.00;99879.81;5098137;28;19912;-91
2023/10/30 01:59:52;;;;;;;;;;;;;;;10.46;100.00;99880.66;5113442;28;19922;-92
2023/10/30 02:02:19;;;;;;;;;;;;;;;10.43;100.00;99879.00;5098207;28;19916;-91
2023/10/30 02:04:44;;;;;;;;;;;;;;;10.48;100.00;99887.56;5116237;28;19947;-92
2023/10/30 02:07:09;;;;;;;;;;;;;;;10.56;100.00;99890.00;5114451;28;19957;-91
2023/10/30 02:09:35;;;;;;;;;;;;;;;10.52;100.00;99889.22;5097614;28;19920;-91
2023/10/30 02:12:00;;;;;;;;;;;;;;;10.57;100.00;99886.47;5104479;28;20014;-91
2023/10/30 02:14:25;;;;;;;;;;;;;;;10.55;100.00;99888.28;5116314;28;19912;-91
2023/10/30 02:16:51;;;;;;;;;;;;;;;10.46;100.00;99883.28;5097427;28;19950;-91
2023/10/30 02:19:24;;;;;;;;;;;;;;;10.42;100.00;99892.97;5115442;28;20388;-91
2023/10/30 02:24:52;;;;;;;;;;;;;;;10.42;100.00;99887.75;5115501;28;19922;-91
2023/10/30 02:27:17;;;;;;;;;;;;;;;10.42;100.00;99886.91;5076483;28;20352;-91
2023/10/30 02:29:42;;;;;;;;;;;;;;;10.35;100.00;99887.03;5114563;28;19929;-91
2023/10/30 02:32:08;;;;;;;;;;;;;;;10.38;100.00;99892.19;5080042;28;20391;-91
2023/10/30 02:34:33;;;;;;;;;;;;;;;10.27;100.00;99886.38;5097214;28;19983;-91
2023/10/30 02:37:00;;;;;;;;;;;;;;;10.35;100.00;99889.66;5096988;28;19916;-91
2023/10/30 02:39:32;;;;;;;;;;;;;;;10.25;100.00;99890.75;5099783;28;20427;-91
2023/10/30 02:41:57;;;;;;;;;;;;;;;10.25;100.00;99879.44;5096486;28;19924;-91
2023/10/30 02:44:23;;;;;;;;;;;;;;;10.34;100.00;99880.09;5114277;28;20402;-91
2023/10/30 02:46:48;;;;;;;;;;;;;;;10.27;100.00;99872.41;5093297;28;20037;-92
2023/10/30 02:49:15;;;;;;;;;;;;;;;10.26;100.00;99868.94;5112108;28;20006;-91
2023/10/30 02:51:40;;;;;;;;;;;;;;;10.33;100.00;99867.88;5081282;28;20009;-91
2023/10/30 02:57:11;;;;;;;;;;;;;;;10.30;100.00;99862.72;5094841;28;19919;-91
2023/10/30 02:59:39;;;;;;;;;;;;;;;10.30;100.00;99872.31;5094724;28;20222;-92
2023/10/30 03:02:04;;;;;;;;;;;;;;;10.38;100.00;99876.47;5077012;28;19934;-91
2023/10/30 03:10:35;;;;;;;;;;;;;;;10.31;100.00;99863.56;5094450;28;20007;-91
2023/10/30 03:16:03;;;;;;;;;;;;;;;10.31;100.00;99874.88;5082365;28;19923;-91
2023/10/30 03:18:28;;;;;;;;;;;;;;;10.28;100.00;99869.72;5093003;28;19920;-91
2023/10/30 03:20:55;;;;;;;;;;;;;;;10.33;100.00;99882.69;5093083;28;19916;-92
2023/10/30 03:23:20;;;;;;;;;;;;;;;10.33;100.00;99882.69;5093399;28;19916;-91
2023/10/30 03:25:46;;;;;;;;;;;;;;;10.44;100.00;99891.16;5093055;28;19922;-92
2023/10/30 03:28:12;;;;;;;;;;;;;;;10.35;100.00;99886.19;5093173;28;20233;-91
2023/10/30 03:30:37;;;;;;;;;;;;;;;10.37;100.00;99885.25;5092931;28;19968;-91
2023/10/30 03:33:03;;;;;;;;;;;;;;;10.33;100.00;99893.19;5089066;28;19962;-91
2023/10/30 03:41:36;;;;;;;;;;;;;;;10.28;100.00;99895.91;5073745;28;19920;-91
2023/10/30 03:44:24;;;;;;;;;;;;;;;10.26;100.00;99897.72;5088738;28;19920;-91
2023/10/30 03:46:51;;;;;;;;;;;;;;;10.29;100.00;99886.31;5092213;28;19916;-92
2023/10/30 03:49:18;;;;;;;;;;;;;;;10.31;100.00;99887.13;5091924;28;20445;-91
2023/10/30 03:51:43;;;;;;;;;;;;;;;10.30;100.00;99886.28;5069860;28;19931;-91
2023/10/30 03:54:11;;;;;;;;;;;;;;;10.23;100.00;99889.97;5092269;28;20063;-91
2023/10/30 03:56:36;;;;;;;;;;;;;;;10.29;100.00;99881.94;5092744;28;19916;-91
2023/10/30 03:59:01;;;;;;;;;;;;;;;10.29;100.00;99887.16;5075124;28;19987;-91
2023/10/30 04:01:27;;;;;;;;;;;;;;;10.28;100.00;99895.91;5091895;28;19912;-91
2023/10/30 04:03:52;;;;;;;;;;;;;;;10.25;100.00;99893.38;5092327;28;20010;-91
2023/10/30 04:06:21;;;;;;;;;;;;;;;10.31;100.00;99890.59;5093574;28;19913;-91
2023/10/30 04:08:46;;;;;;;;;;;;;;;10.22;100.00;99898.69;5093215;28;19912;-91
2023/10/30 04:11:12;;;;;;;;;;;;;;;10.28;100.00;99898.53;5092036;28;19923;-91
2023/10/30 04:13:37;;;;;;;;;;;;;;;10.34;100.00;99885.34;5092140;28;19916;-91
2023/10/30 04:16:03;;;;;;;;;;;;;;;10.46;100.00;99891.13;5092752;28;20291;-91
2023/10/30 04:18:28;;;;;;;;;;;;;;;10.35;100.00;99889.66;5074642;28;20394;-91
2023/10/30 04:20:54;;;;;;;;;;;;;;;10.37;100.00;99887.88;5093171;28;19954;-91
2023/10/30 04:23:20;;;;;;;;;;;;;;;10.29;100.00;99892.41;5092074;28;19959;-91
2023/10/30 04:25:45;;;;;;;;;;;;;;;10.34;100.00;99887.97;5091834;28;19912;-91
2023/10/30 04:28:11;;;;;;;;;;;;;;;10.43;100.00;99883.34;5091888;28;20313;-91
2023/10/30 04:30:39;;;;;;;;;;;;;;;10.33;100.00;99893.19;5092105;28;19939;-91
2023/10/30 04:33:04;;;;;;;;;;;;;;;10.32;100.00;99881.84;5090483;28;20046;-92
2023/10/30 04:41:35;;;;;;;;;;;;;;;10.18;100.00;99894.44;5093862;28;20038;-91
2023/10/30 04:47:22;;;;;;;;;;;;;;;10.16;100.00;99896.25;5097270;28;19976;-91
2023/10/30 04:49:50;;;;;;;;;;;;;;;10.08;100.00;99898.19;5087777;28;19927;-91
2023/10/30 04:52:15;;;;;;;;;;;;;;;10.05;100.00;99901.75;5095832;28;19928;-91
2023/10/30 04:54:41;;;;;;;;;;;;;;;10.10;100.00;99899.00;5096120;28;19969;-91
2023/10/30 04:57:07;;;;;;;;;;;;;;;10.14;100.00;99893.66;5095910;28;19923;-91
2023/10/30 04:59:32;;;;;;;;;;;;;;;10.11;100.00;99896.34;5095903;28;19920;-91
2023/10/30 05:02:01;;;;;;;;;;;;;;;10.15;100.00;99905.00;5093606;28;20011;-91
2023/10/30 05:10:32;;;;;;;;;;;;;;;9.93;100.00;99891.56;5091752;28;19922;-92
2023/10/30 05:12:58;;;;;;;;;;;;;;;9.98;100.00;99892.31;5094947;28;19912;-91
2023/10/30 05:18:28;;;;;;;;;;;;;;;9.91;100.00;99881.13;5089255;28;19938;-91
2023/10/30 05:20:54;;;;;;;;;;;;;;;9.82;100.00;99882.22;5095684;28;20053;-91
2023/10/30 05:23:19;;;;;;;;;;;;;;;9.93;100.00;99891.56;5061770;28;19973;-91
2023/10/30 05:25:45;;;;;;;;;;;;;;;9.85;100.00;99891.75;5096370;28;19912;-91
2023/10/30 05:28:10;;;;;;;;;;;;;;;9.71;100.00;99894.69;5095616;28;20104;-91
2023/10/30 05:30:35;;;;;;;;;;;;;;;9.80;100.00;99893.63;5095929;28;19930;-91
2023/10/30 05:33:01;;;;;;;;;;;;;;;9.81;100.00;99890.97;5096241;28;19981;-91
2023/10/30 05:35:27;;;;;;;;;;;;;;;9.79;100.00;99884.91;5094626;28;20265;-91
2023/10/30 05:37:52;;;;;;;;;;;;;;;9.84;100.00;99885.66;5077760;28;19921;-91
2023/10/30 05:40:17;;;;;;;;;;;;;;;9.76;100.00;99876.28;5094532;28;19943;-91
2023/10/30 05:42:43;;;;;;;;;;;;;;;9.81;100.00;99871.78;5077964;28;20012;-92
2023/10/30 05:45:11;;;;;;;;;;;;;;;9.81;100.00;99872.66;5094950;28;19998;-91
2023/10/30 05:47:36;;;;;;;;;;;;;;;9.76;100.00;99873.66;5077648;28;19970;-91
2023/10/30 05:50:05;;;;;;;;;;;;;;;9.71;100.00;99877.25;5094903;28;19959;-91
2023/10/30 05:52:30;;;;;;;;;;;;;;;9.74;100.00;99885.91;5090490;28;19927;-90
2023/10/30 05:54:58;;;;;;;;;;;;;;;9.62;100.00;99884.44;5073560;28;20003;-91
2023/10/30 05:57:23;;;;;;;;;;;;;;;9.72;100.00;99880.72;5072281;28;20038;-90
2023/10/30 05:59:48;;;;;;;;;;;;;;;9.64;100.00;99890.50;5083159;28;19942;-90
2023/10/30 06:02:15;;;;;;;;;;;;;;;9.60;100.00;99875.78;5074331;28;19913;-90
2023/10/30 06:04:41;;;;;;;;;;;;;;;9.66;100.00;99881.72;5073141;28;19953;-90
2023/10/30 06:07:07;;;;;;;;;;;;;;;9.59;100.00;99879.28;5058186;28;19913;-90
2023/10/30 06:09:32;;;;;;;;;;;;;;;9.60;100.00;99876.63;5057295;28;19946;-90
2023/10/30 06:11:58;;;;;;;;;;;;;;;9.58;100.00;99880.19;5057344;28;20276;-91
2023/10/30 06:14:26;;;;;;;;;;;;;;;9.54;100.00;99879.41;5073386;28;19923;-89
2023/10/30 06:16:51;;;;;;;;;;;;;;;9.41;100.00;99880.56;5070304;28;20356;-88
2023/10/30 06:19:17;;;;;;;;;;;;;;;9.51;100.00;99885.56;5057095;28;19950;-88
2023/10/30 06:21:45;;;;;;;;;;;;;;;9.36;100.00;99878.06;5074042;28;20439;-88
2023/10/30 06:24:11;;;;;;;;;;;;;;;9.36;100.00;99876.28;5073738;28;19942;-89
2023/10/30 06:26:43;;;;;;;;;;;;;;;9.30;100.00;99888.66;5073632;28;20310;-88
2023/10/30 06:29:08;;;;;;;;;;;;;;;9.38;100.00;99901.56;5074357;28;19912;-88
2023/10/30 06:31:35;;;;;;;;;;;;;;;9.26;100.00;99895.69;5073803;28;20019;-89
2023/10/30 06:34:06;;;;;;;;;;;;;;;9.33;100.00;99905.13;5073842;28;19917;-88
2023/10/30 06:36:33;;;;;;;;;;;;;;;9.28;100.00;99912.22;5075041;28;20276;-88
2023/10/30 06:39:00;;;;;;;;;;;;;;;9.26;100.00;99913.13;5057553;28;19920;-88
2023/10/30 06:41:25;;;;;;;;;;;;;;;9.22;100.00;99916.72;5073487;28;19956;-89
2023/10/30 06:43:51;;;;;;;;;;;;;;;9.25;100.00;99917.53;5057064;28;19967;-89
2023/10/30 06:46:17;;;;;;;;;;;;;;;9.20;100.00;99924.59;5056630;28;19963;-89
2023/10/30 06:48:42;;;;;;;;;;;;;;;9.23;100.00;99931.50;5073393;28;20373;-89
2023/10/30 06:51:07;;;;;;;;;;;;;;;9.28;100.00;99938.38;5080362;28;20280;-89
2023/10/30 06:53:32;;;;;;;;;;;;;;;9.40;100.00;99936.38;5093567;28;19966;-89
2023/10/30 06:55:58;;;;;;;;;;;;;;;9.40;100.00;99939.84;5073936;28;19946;-89
2023/10/30 06:58:23;;;;;;;;;;;;;;;9.35;100.00;99939.06;5073316;28;19959;-89
2023/10/30 07:00:49;;;;;;;;;;;;;;;9.53;100.00;99940.44;5056423;28;20011;-89
2023/10/30 07:03:14;;;;;;;;;;;;;;;9.44;100.00;99938.00;5073893;28;19913;-90
2023/10/30 07:05:44;;;;;;;;;;;;;;;9.58;100.00;99938.56;5072543;28;19924;-89
2023/10/30 07:08:10;;;;;;;;;;;;;;;9.71;100.00;99941.78;5064509;28;20300;-89
2023/10/30 07:10:35;;;;;;;;;;;;;;;9.74;100.00;99930.38;5059335;28;20024;-90
2023/10/30 07:13:00;;;;;;;;;;;;;;;9.83;100.00;99935.44;5075864;28;20354;-89
2023/10/30 07:18:30;;;;;;;;;;;;;;;9.92;100.00;99935.19;5053983;28;19919;-90
2023/10/30 07:20:57;;;;;;;;;;;;;;;10.02;100.00;99941.06;5068730;28;19923;-89
2023/10/30 07:23:23;;;;;;;;;;;;;;;10.40;100.00;99948.03;5052488;28;19912;-89
2023/10/30 07:26:01;;;;;;;;;;;;;;;10.91;100.00;99941.44;5063055;28;19986;-89
2023/10/30 07:28:29;;;;;;;;;;;;;;;11.57;99.52;99938.66;5073761;28;19913;-90
2023/10/30 07:30:54;;;;;;;;;;;;;;;11.80;97.72;99937.09;5055464;28;20012;-89
2023/10/30 07:33:20;;;;;;;;;;;;;;;11.93;97.37;99935.84;5072207;28;20043;-90
2023/10/30 07:39:09;;;;;;;;;;;;;;;12.08;96.55;99949.38;5073626;28;20013;-89
2023/10/30 07:41:34;;;;;;;;;;;;;;;12.74;94.06;99956.81;5072315;28;19912;-89
2023/10/30 07:44:00;;;;;;;;;;;;;;;13.48;89.31;99962.09;5072029;28;19920;-90
2023/10/30 07:46:25;;;;;;;;;;;;;;;14.05;87.11;99967.78;5088535;28;19927;-90
2023/10/30 07:48:50;;;;;;;;;;;;;;;14.20;86.03;99972.41;5065065;28;19946;-89
2023/10/30 07:51:34;;;;;;;;;;;;;;;14.04;86.65;99972.16;5042472;28;19940;-89
2023/10/30 07:54:19;;;;;;;;;;;;;;;14.14;86.21;99972.66;5052404;28;20028;-89
2023/10/30 07:56:45;;;;;;;;;;;;;;;14.45;84.03;99971.41;5060690;28;20388;-90
2023/10/30 07:59:10;;;;;;;;;;;;;;;14.47;85.49;99961.66;5072341;28;19930;-90
2023/10/30 08:01:35;;;;;;;;;;;;;;;14.83;84.97;99966.31;5072011;28;19974;-90
2023/10/30 08:04:03;;;;;;;;;;;;;;;14.73;83.85;99960.56;5073054;28;19924;-90
2023/10/30 08:06:28;;;;;;;;;;;;;;;14.85;84.75;99964.44;5072036;28;19923;-90
2023/10/30 08:08:53;;;;;;;;;;;;;;;14.90;84.06;99973.03;5055482;28;19917;-90
2023/10/30 08:11:19;;;;;;;;;;;;;;;14.79;84.47;99966.50;5073452;28;19917;-89
2023/10/30 08:13:44;;;;;;;;;;;;;;;14.73;85.32;99971.13;5072404;28;20324;-90
2023/10/30 08:16:12;;;;;;;;;;;;;;;15.31;83.17;99966.81;5054706;28;19924;-90
2023/10/30 08:18:38;;;;;;;;;;;;;;;15.94;80.27;99971.00;5072945;28;20361;-90
2023/10/30 08:21:04;;;;;;;;;;;;;;;16.18;76.93;99968.97;5073357;28;19970;-90
2023/10/30 08:23:29;;;;;;;;;;;;;;;16.22;77.39;99975.81;5072133;28;19951;-90
2023/10/30 08:25:55;;;;;;;;;;;;;;;16.19;77.82;99975.09;5073297;28;19966;-90
2023/10/30 08:28:20;;;;;;;;;;;;;;;16.14;77.84;99972.69;5073263;28;19920;-89
2023/10/30 08:30:45;;;;;;;;;;;;;;;16.08;77.02;99963.25;5054999;28;19920;-90
2023/10/30 08:33:11;;;;;;;;;;;;;;;16.05;78.02;99975.78;5071417;28;20304;-90
2023/10/30 08:38:57;;;;;;;;;;;;;;;15.66;79.47;99981.97;5073151;28;19924;-92
2023/10/30 08:41:26;;;;;;;;;;;;;;;15.61;79.43;99986.63;5070833;28;20280;-91
2023/10/30 08:43:56;;;;;;;;;;;;;;;15.49;80.19;99991.53;5072174;28;19978;-91
2023/10/30 08:46:22;;;;;;;;;;;;;;;15.60;80.05;99977.81;5071664;28;19935;-91
2023/10/30 08:48:47;;;;;;;;;;;;;;;15.39;80.70;99977.06;5071694;28;19913;-91
2023/10/30 09:33:08;;;;;;;;;;;;;;;12.20;96.43;99972.63;5096201;28;19926;-91
2023/10/30 09:35:59;;;;;;;;;;;;;;;12.26;96.21;99976.84;5113855;28;20276;-91
2023/10/30 09:41:54;;;;;;;;;;;;;;;12.31;96.78;99972.25;5089247;28;20274;-92
2023/10/30 09:47:44;;;;;;;;;;;;;;;;;;;;;
2023/10/30 09:53:32;;;;;;;;;;;;;;;12.45;97.34;99966.56;5076563;28;19920;-92
2023/10/30 10:11:12;;;;;;;;;;;;;;;12.57;97.57;99931.13;5078515;28;19982;-92
2023/10/30 10:13:53;;;;;;;;;;;;;;;12.67;97.29;99926.41;5076510;28;19914;-91
2023/10/30 10:16:47;;;;;;;;;;;;;;;12.72;97.09;99933.22;5079277;28;19927;-92
2023/10/30 10:19:38;;;;;;;;;;;;;;;12.80;96.50;99932.94;5077697;28;19913;-91
2023/10/30 10:22:12;;;;;;;;;;;;;;;12.72;96.83;99932.38;5078379;28;20276;-91
2023/10/30 10:24:56;;;;;;;;;;;;;;;12.82;96.62;99929.34;5061511;28;19978;-92
2023/10/30 10:27:44;;;;;;;;;;;;;;;12.87;96.19;99929.19;5075721;28;19916;-92
2023/10/30 10:30:21;;;;;;;;;;;;;;;12.92;96.11;99939.56;5074135;28;20360;-92
2023/10/30 10:33:12;;;;;;;;;;;;;;;12.88;95.81;99930.06;5073720;28;19970;-91
2023/10/30 10:35:47;;;;;;;;;;;;;;;12.76;97.18;99941.88;5090191;28;19942;-91
2023/10/30 10:38:24;;;;;;;;;;;;;;;12.87;96.58;99930.97;5097466;28;19922;-91
2023/10/30 10:40:54;;;;;;;;;;;;;;;12.90;96.19;99934.34;5097390;28;19912;-92
2023/10/30 10:43:21;;;;;;;;;;;;;;;12.96;96.13;99925.38;5081458;28;19922;-92
2023/10/30 10:46:08;;;;;;;;;;;;;;;13.03;95.36;99926.88;5097708;28;19939;-93
2023/10/30 10:48:54;;;;;;;;;;;;;;;12.96;95.33;99925.38;5097212;28;20431;-92
2023/10/30 10:51:32;;;;;;;;;;;;;;;12.93;96.01;99922.84;5081717;28;19916;-92
2023/10/30 10:57:01;;;;;;;;;;;;;;;12.97;95.89;99916.56;5115552;28;19918;-92
2023/10/30 10:59:44;;;;;;;;;;;;;;;12.92;96.45;99913.25;5115086;28;19912;-93
2023/10/30 11:02:23;;;;;;;;;;;;;;;13.00;95.82;99913.81;5097043;28;19912;-92
2023/10/30 11:05:29;;;;;;;;;;;;;;;13.05;95.86;99911.88;5061857;28;20041;-91
2023/10/30 11:08:00;;;;;;;;;;;;;;;13.04;96.18;99910.16;5081290;28;20106;-92
2023/10/30 11:10:38;;;;;;;;;;;;;;;13.12;95.76;99910.75;5114597;28;19916;-92
2023/10/30 11:13:24;;;;;;;;;;;;;;;12.99;96.59;99896.34;5096954;28;20279;-92
2023/10/30 11:16:01;;;;;;;;;;;;;;;13.12;96.20;99902.00;5096888;28;19935;-91
2023/10/30 11:18:34;;;;;;;;;;;;;;;13.08;96.48;99903.03;5115219;28;19912;-91
2023/10/30 11:21:09;;;;;;;;;;;;;;;13.16;95.84;99899.19;5114282;28;19923;-92
2023/10/30 11:23:47;;;;;;;;;;;;;;;13.19;96.52;99892.97;5096774;28;20015;-92
2023/10/30 11:26:36;;;;;;;;;;;;;;;13.21;95.77;99892.91;5096458;28;19915;-91
2023/10/30 11:29:20;;;;;;;;;;;;;;;13.15;96.72;99886.09;5096651;28;20275;-92
2023/10/30 11:32:04;;;;;;;;;;;;;;;13.29;95.90;99877.69;5113495;28;20024;-92
2023/10/30 11:34:51;;;;;;;;;;;;;;;13.29;95.42;99870.66;5096616;28;19912;-91
2023/10/30 11:37:18;;;;;;;;;;;;;;;13.34;94.59;99865.19;5109612;28;19926;-91
2023/10/30 11:40:04;;;;;;;;;;;;;;;13.27;95.76;99861.09;5075767;28;20003;-91
2023/10/30 11:42:39;;;;;;;;;;;;;;;13.30;95.33;99863.59;5063970;28;19936;-92
2023/10/30 11:45:26;;;;;;;;;;;;;;;13.25;95.90;99860.31;5072505;28;20415;-91
2023/10/30 11:48:09;;;;;;;;;;;;;;;13.29;95.03;99861.91;5072904;28;20411;-91
2023/10/30 11:57:00;;;;;;;;;;;;;;;;;;;;;
2023/10/30 12:02:38;;;;;;;;;;;;;;;13.18;95.03;99844.75;5051453;28;19942;-91
2023/10/30 12:08:12;;;;;;;;;;;;;;;13.38;92.76;99843.16;5073206;28;20019;-93
2023/10/30 12:10:48;;;;;;;;;;;;;;;13.36;92.77;99838.88;5071653;28;19958;-92
2023/10/30 12:13:18;;;;;;;;;;;;;;;13.27;93.00;99830.38;5072447;28;19950;-92
2023/10/30 12:18:46;;;;;;;;;;;;;;;13.23;93.19;99834.06;5073543;28;20379;-92
2023/10/30 12:21:18;;;;;;;;;;;;;;;13.23;93.19;99827.94;5072240;28;19916;-92
2023/10/30 12:29:57;;;;;;;;;;;;;;;13.26;92.96;99814.66;5073225;28;20027;-92
2023/10/30 12:32:30;;;;;;;;;;;;;;;13.22;93.26;99803.41;5072103;28;19913;-92
2023/10/30 12:35:09;;;;;;;;;;;;;;;13.20;94.19;99799.13;5073531;28;19912;-92
2023/10/30 12:37:37;;;;;;;;;;;;;;;13.32;92.85;99802.13;5113501;28;19920;-92
2023/10/30 12:40:07;;;;;;;;;;;;;;;13.20;93.40;99804.38;5095737;28;19915;-91
2023/10/30 12:42:46;;;;;;;;;;;;;;;13.17;93.90;99795.69;5079068;28;19920;-91
2023/10/30 12:45:28;;;;;;;;;;;;;;;13.24;93.72;99792.81;5095539;28;19919;-92
2023/10/30 12:48:12;;;;;;;;;;;;;;;13.16;93.35;99779.97;5078073;28;19916;-92
2023/10/30 12:50:38;;;;;;;;;;;;;;;13.09;93.14;99776.72;5095224;28;19915;-92
2023/10/30 12:56:33;;;;;;;;;;;;;;;13.13;92.48;99762.53;5113445;28;20075;-92
2023/10/30 12:59:04;;;;;;;;;;;;;;;12.92;94.13;99763.38;5090924;28;19916;-91
2023/10/30 13:01:34;;;;;;;;;;;;;;;12.83;94.31;99754.94;5095025;28;19998;-92
2023/10/30 13:07:15;;;;;;;;;;;;;;;12.77;94.62;99734.13;5117131;28;20003;-92
2023/10/30 13:09:40;;;;;;;;;;;;;;;12.65;95.69;99729.34;5083035;28;19916;-92
2023/10/30 13:12:06;;;;;;;;;;;;;;;12.62;96.26;99727.69;5115496;28;20259;-92
2023/10/30 13:14:31;;;;;;;;;;;;;;;12.57;96.35;99715.63;5116451;28;19922;-92
2023/10/30 13:16:57;;;;;;;;;;;;;;;12.54;96.40;99710.50;5115905;28;20340;-92
2023/10/30 13:19:39;;;;;;;;;;;;;;;12.56;96.76;99708.69;5098449;28;19911;-92
2023/10/30 13:22:05;;;;;;;;;;;;;;;12.58;96.90;99701.56;5077053;28;19987;-92
2023/10/30 13:30:38;;;;;;;;;;;;;;;12.72;97.26;99694.00;5112042;28;19922;-92
2023/10/30 13:36:31;;;;;;;;;;;;;;;12.81;97.24;99684.91;5109169;28;20040;-92
2023/10/30 13:38:59;;;;;;;;;;;;;;;12.82;97.41;99690.09;5074878;28;19921;-92
2023/10/30 13:41:26;;;;;;;;;;;;;;;12.79;97.38;99690.22;5085484;28;19917;-92
2023/10/30 13:44:17;;;;;;;;;;;;;;;12.79;98.14;99692.88;5091582;28;20014;-92
2023/10/30 13:46:52;;;;;;;;;;;;;;;12.74;98.13;99679.06;5074449;28;19920;-92
2023/10/30 13:49:18;;;;;;;;;;;;;;;12.71;97.47;99681.78;5074683;28;20372;-92
2023/10/30 13:52:03;;;;;;;;;;;;;;;12.68;97.72;99671.41;5074618;28;19924;-92
2023/10/30 13:57:32;;;;;;;;;;;;;;;12.67;98.57;99674.97;5075999;28;20017;-92
2023/10/30 13:59:59;;;;;;;;;;;;;;;12.66;98.47;99665.34;5058066;28;20383;-92
2023/10/30 14:02:31;;;;;;;;;;;;;;;12.66;98.88;99667.97;5074705;28;20298;-92
2023/10/30 14:05:20;;;;;;;;;;;;;;;12.62;98.63;99664.59;5074298;28;19912;-92
2023/10/30 14:07:46;;;;;;;;;;;;;;;12.61;98.19;99659.41;5074633;28;19916;-91
2023/10/30 14:10:27;;;;;;;;;;;;;;;12.63;99.10;99662.84;5075302;28;19917;-91
2023/10/30 14:12:52;;;;;;;;;;;;;;;12.63;99.05;99658.44;5058023;28;19917;-91
2023/10/30 14:18:27;;;;;;;;;;;;;;;12.61;99.05;99662.91;5075337;28;19981;-92
2023/10/30 14:23:55;;;;;;;;;;;;;;;12.60;99.37;99660.34;5075484;28;19989;-92
2023/10/30 14:26:32;;;;;;;;;;;;;;;12.67;99.20;99653.06;5073739;28;20311;-92
2023/10/30 14:29:14;;;;;;;;;;;;;;;12.56;99.22;99650.88;5073980;28;20342;-92
2023/10/30 14:38:09;;;;;;;;;;;;;;;12.43;99.80;99650.47;5084212;28;20956;-92
2023/10/30 14:40:43;;;;;;;;;;;;;;;12.36;99.88;99639.34;5096966;28;19920;-92
2023/10/30 14:43:11;;;;;;;;;;;;;;;12.35;99.92;99637.63;5080443;28;19952;-92
2023/10/30 14:45:38;;;;;;;;;;;;;;;12.33;100.00;99638.63;5097207;28;20260;-91
2023/10/30 14:48:15;;;;;;;;;;;;;;;12.26;100.00;99630.09;5115339;28;20332;-91
2023/10/30 14:50:41;;;;;;;;;;;;;;;12.23;100.00;99632.84;5096515;28;19935;-91
2023/10/30 14:53:06;;;;;;;;;;;;;;;12.21;100.00;99618.91;5096955;28;19912;-92
2023/10/30 14:55:35;;;;;;;;;;;;;;;12.20;100.00;99617.22;5096873;28;19918;-92
2023/10/30 14:58:00;;;;;;;;;;;;;;;12.20;100.00;99607.56;5096991;28;19994;-92
2023/10/30 15:00:42;;;;;;;;;;;;;;;12.21;100.00;99613.66;5096221;28;19916;-92
2023/10/30 15:03:25;;;;;;;;;;;;;;;12.20;100.00;99609.34;5081867;28;19916;-92
2023/10/30 15:05:59;;;;;;;;;;;;;;;12.19;100.00;99610.25;5096817;28;19912;-92
2023/10/30 15:08:25;;;;;;;;;;;;;;;12.16;100.00;99611.22;5095652;28;19911;-90
2023/10/30 15:10:52;;;;;;;;;;;;;;;12.12;100.00;99602.63;5096245;28;20037;-90
2023/10/30 15:13:17;;;;;;;;;;;;;;;12.09;100.00;99597.44;5096221;28;19916;-90
2023/10/30 15:16:04;;;;;;;;;;;;;;;12.06;100.00;99594.09;5113289;28;20024;-90
2023/10/30 15:18:33;;;;;;;;;;;;;;;12.05;100.00;99589.75;5113447;28;19919;-90
2023/10/30 15:20:59;;;;;;;;;;;;;;;12.03;100.00;99584.56;5095781;28;19916;-90
2023/10/30 15:23:27;;;;;;;;;;;;;;;11.99;100.00;99585.59;5096113;28;19927;-89
2023/10/30 15:25:52;;;;;;;;;;;;;;;11.96;100.00;99578.69;5112631;28;20040;-90
2023/10/30 15:28:17;;;;;;;;;;;;;;;11.90;100.00;99578.88;5095769;28;20379;-89
2023/10/30 15:30:44;;;;;;;;;;;;;;;11.88;100.00;99580.72;5113764;28;20006;-89
2023/10/30 15:33:10;;;;;;;;;;;;;;;11.86;100.00;99577.28;5095947;28;19912;-89
2023/10/30 15:35:37;;;;;;;;;;;;;;;11.82;100.00;99569.59;5099163;28;19981;-89
2023/10/30 15:38:05;;;;;;;;;;;;;;;11.81;100.00;99581.00;5095321;28;20054;-90
2023/10/30 15:40:30;;;;;;;;;;;;;;;11.76;100.00;99571.50;5092428;28;19920;-90
2023/10/30 15:42:55;;;;;;;;;;;;;;;11.75;100.00;99564.56;5075612;28;19916;-90
2023/10/30 15:45:23;;;;;;;;;;;;;;;11.69;100.00;99559.53;5078698;28;19926;-91
2023/10/30 15:47:48;;;;;;;;;;;;;;;11.65;100.00;99554.47;5055429;28;19938;-91
2023/10/30 15:50:13;;;;;;;;;;;;;;;11.62;100.00;99558.03;5071979;28;20007;-90
2023/10/30 15:52:39;;;;;;;;;;;;;;;11.59;100.00;99550.28;5072375;28;19923;-91
2023/10/30 15:55:04;;;;;;;;;;;;;;;11.55;100.00;99544.31;5072974;28;20375;-91
2023/10/30 15:57:30;;;;;;;;;;;;;;;11.52;100.00;99546.19;5084539;28;19921;-92
2023/10/30 16:00:05;;;;;;;;;;;;;;;11.46;100.00;99551.66;5095174;28;19917;-93